sensor_id;sensor_type;location;lat;lon;timestamp;pressure;altitude;pressure_sealevel;temperature;humidity
75936;BME280;64614;32.062;34.834;2022-11-20T00:01:21;101765.88;;;24.35;41.67
75936;BME280;64614;32.062;34.834;2022-11-20T00:03:47;101769.72;;;24.34;41.95
75936;BME280;64614;32.062;34.834;2022-11-20T00:06:15;101764.75;;;24.36;41.77
75936;BME280;64614;32.062;34.834;2022-11-20T00:08:43;101762.03;;;24.36;42.01
75936;BME280;64614;32.062;34.834;2022-11-20T00:11:16;101764.75;;;24.36;41.89
75936;BME280;64614;32.062;34.834;2022-11-20T00:16:19;101754.59;;;24.37;41.85
75936;BME280;64614;32.062;34.834;2022-11-20T00:18:46;101759.28;;;24.36;41.93
75936;BME280;64614;32.062;34.834;2022-11-20T00:21:15;101764.75;;;24.36;42.03
75936;BME280;64614;32.062;34.834;2022-11-20T00:23:43;101764.47;;;24.38;41.79
75936;BME280;64614;32.062;34.834;2022-11-20T00:26:11;101758.44;;;24.36;41.50
75936;BME280;64614;32.062;34.834;2022-11-20T00:28:37;101758.13;;;24.37;41.89
75936;BME280;64614;32.062;34.834;2022-11-20T00:31:11;101754.88;;;24.35;41.38
75936;BME280;64614;32.062;34.834;2022-11-20T00:33:53;101759.56;;;24.35;41.95
75936;BME280;64614;32.062;34.834;2022-11-20T00:36:24;101757.63;;;24.35;42.12
75936;BME280;64614;32.062;34.834;2022-11-20T00:38:57;101755.69;;;24.36;42.32
75936;BME280;64614;32.062;34.834;2022-11-20T00:41:25;101766.47;;;24.32;42.04
75936;BME280;64614;32.062;34.834;2022-11-20T00:43:54;101763.19;;;24.30;41.76
75936;BME280;64614;32.062;34.834;2022-11-20T00:46:26;101773.66;;;24.28;42.10
75936;BME280;64614;32.062;34.834;2022-11-20T00:48:54;101768.75;;;24.25;42.31
75936;BME280;64614;32.062;34.834;2022-11-20T00:51:22;101773.13;;;24.26;42.24
75936;BME280;64614;32.062;34.834;2022-11-20T00:53:48;101773.13;;;24.26;42.23
75936;BME280;64614;32.062;34.834;2022-11-20T00:56:17;101778.63;;;24.26;42.53
75936;BME280;64614;32.062;34.834;2022-11-20T00:58:44;101773.94;;;24.27;42.31
75936;BME280;64614;32.062;34.834;2022-11-20T01:01:13;101766.00;;;24.25;42.39
75936;BME280;64614;32.062;34.834;2022-11-20T01:03:44;101774.47;;;24.29;41.89
75936;BME280;64614;32.062;34.834;2022-11-20T01:06:36;101760.75;;;24.29;41.54
75936;BME280;64614;32.062;34.834;2022-11-20T01:09:09;101761.06;;;24.27;41.63
75936;BME280;64614;32.062;34.834;2022-11-20T01:11:37;101766.22;;;24.29;41.51
75936;BME280;64614;32.062;34.834;2022-11-20T01:14:06;101755.03;;;24.25;41.53
75936;BME280;64614;32.062;34.834;2022-11-20T01:16:38;101762.16;;;24.26;41.50
75936;BME280;64614;32.062;34.834;2022-11-20T01:19:11;101760.53;;;24.25;41.43
75936;BME280;64614;32.062;34.834;2022-11-20T01:21:38;101756.66;;;24.26;41.61
75936;BME280;64614;32.062;34.834;2022-11-20T01:24:08;101763.28;;;24.25;41.17
75936;BME280;64614;32.062;34.834;2022-11-20T01:26:38;101765.72;;;24.27;41.40
75936;BME280;64614;32.062;34.834;2022-11-20T01:29:04;101761.31;;;24.25;40.87
75936;BME280;64614;32.062;34.834;2022-11-20T01:31:33;101762.59;;;24.33;44.35
75936;BME280;64614;32.062;34.834;2022-11-20T01:34:03;101757.03;;;24.38;44.13
75936;BME280;64614;32.062;34.834;2022-11-20T01:36:31;101749.63;;;24.39;44.41
75936;BME280;64614;32.062;34.834;2022-11-20T01:39:13;101751.25;;;24.40;44.43
75936;BME280;64614;32.062;34.834;2022-11-20T01:41:39;101754.28;;;24.38;44.28
75936;BME280;64614;32.062;34.834;2022-11-20T01:44:55;101753.69;;;24.41;44.24
75936;BME280;64614;32.062;34.834;2022-11-20T01:47:37;101765.47;;;24.42;44.48
75936;BME280;64614;32.062;34.834;2022-11-20T01:50:14;101762.47;;;24.44;44.36
75936;BME280;64614;32.062;34.834;2022-11-20T01:52:52;101763.25;;;24.44;44.82
75936;BME280;64614;32.062;34.834;2022-11-20T01:55:25;101760.81;;;24.43;44.56
75936;BME280;64614;32.062;34.834;2022-11-20T01:57:51;101762.47;;;24.44;44.54
75936;BME280;64614;32.062;34.834;2022-11-20T02:00:18;101768.16;;;24.47;44.71
75936;BME280;64614;32.062;34.834;2022-11-20T02:02:49;101764.69;;;24.41;43.74
75936;BME280;64614;32.062;34.834;2022-11-20T02:05:47;101764.25;;;24.34;42.81
75936;BME280;64614;32.062;34.834;2022-11-20T02:08:12;101770.31;;;24.31;42.37
75936;BME280;64614;32.062;34.834;2022-11-20T02:10:38;101763.50;;;24.29;42.00
75936;BME280;64614;32.062;34.834;2022-11-20T02:13:04;101764.59;;;24.28;42.19
75936;BME280;64614;32.062;34.834;2022-11-20T02:15:50;101753.94;;;24.26;41.57
75936;BME280;64614;32.062;34.834;2022-11-20T02:18:19;101759.09;;;24.28;42.09
75936;BME280;64614;32.062;34.834;2022-11-20T02:20:48;101756.16;;;24.24;41.38
75936;BME280;64614;32.062;34.834;2022-11-20T02:23:27;101747.59;;;24.25;41.37
75936;BME280;64614;32.062;34.834;2022-11-20T02:25:57;101752.59;;;24.23;41.42
75936;BME280;64614;32.062;34.834;2022-11-20T02:28:25;101751.25;;;24.21;41.61
75936;BME280;64614;32.062;34.834;2022-11-20T02:30:52;101748.50;;;24.21;41.59
75936;BME280;64614;32.062;34.834;2022-11-20T02:33:18;101730.38;;;24.20;41.65
75936;BME280;64614;32.062;34.834;2022-11-20T02:35:45;101741.88;;;24.22;41.62
75936;BME280;64614;32.062;34.834;2022-11-20T02:38:12;101738.03;;;24.23;41.81
75936;BME280;64614;32.062;34.834;2022-11-20T02:48:21;101752.59;;;24.23;42.66
75936;BME280;64614;32.062;34.834;2022-11-20T02:50:47;101751.97;;;24.27;42.68
75936;BME280;64614;32.062;34.834;2022-11-20T02:53:13;101767.94;;;24.24;41.64
75936;BME280;64614;32.062;34.834;2022-11-20T02:55:38;101762.38;;;24.30;42.39
75936;BME280;64614;32.062;34.834;2022-11-20T02:58:05;101759.94;;;24.28;43.75
75936;BME280;64614;32.062;34.834;2022-11-20T03:03:05;101762.06;;;24.31;44.83
75936;BME280;64614;32.062;34.834;2022-11-20T03:05:36;101770.25;;;24.36;45.35
75936;BME280;64614;32.062;34.834;2022-11-20T03:08:01;101763.19;;;24.30;41.03
75936;BME280;64614;32.062;34.834;2022-11-20T03:10:28;101754.59;;;24.18;39.11
75936;BME280;64614;32.062;34.834;2022-11-20T03:12:54;101758.50;;;24.12;39.60
75936;BME280;64614;32.062;34.834;2022-11-20T03:15:22;101760.66;;;24.15;40.63
75936;BME280;64614;32.062;34.834;2022-11-20T03:17:48;101758.75;;;24.15;40.76
75936;BME280;64614;32.062;34.834;2022-11-20T03:20:13;101764.50;;;24.14;40.64
75936;BME280;64614;32.062;34.834;2022-11-20T03:22:40;101770.63;;;24.11;40.02
75936;BME280;64614;32.062;34.834;2022-11-20T03:25:05;101777.44;;;24.13;40.33
75936;BME280;64614;32.062;34.834;2022-11-20T03:27:33;101782.41;;;24.11;40.56
75936;BME280;64614;32.062;34.834;2022-11-20T03:30:04;101776.09;;;24.11;40.02
75936;BME280;64614;32.062;34.834;2022-11-20T03:37:34;101782.47;;;24.06;39.75
75936;BME280;64614;32.062;34.834;2022-11-20T03:40:00;101782.75;;;24.04;40.06
75936;BME280;64614;32.062;34.834;2022-11-20T03:42:25;101780.00;;;24.04;39.25
75936;BME280;64614;32.062;34.834;2022-11-20T03:45:10;101780.09;;;23.99;39.34
75936;BME280;64614;32.062;34.834;2022-11-20T03:47:35;101786.59;;;24.03;40.12
75936;BME280;64614;32.062;34.834;2022-11-20T03:50:01;101783.84;;;24.03;39.38
75936;BME280;64614;32.062;34.834;2022-11-20T03:52:27;101778.44;;;23.98;37.88
75936;BME280;64614;32.062;34.834;2022-11-20T03:54:52;101784.50;;;23.95;37.90
75936;BME280;64614;32.062;34.834;2022-11-20T03:57:18;101788.63;;;23.92;38.16
75936;BME280;64614;32.062;34.834;2022-11-20T03:59:44;101780.00;;;24.04;39.15
75936;BME280;64614;32.062;34.834;2022-11-20T04:02:09;101783.81;;;24.08;38.13
75936;BME280;64614;32.062;34.834;2022-11-20T04:04:35;101786.81;;;24.07;38.34
75936;BME280;64614;32.062;34.834;2022-11-20T04:07:00;101786.09;;;24.01;37.30
75936;BME280;64614;32.062;34.834;2022-11-20T04:09:26;101799.88;;;23.96;36.73
75936;BME280;64614;32.062;34.834;2022-11-20T04:11:52;101776.03;;;23.91;37.60
75936;BME280;64614;32.062;34.834;2022-11-20T04:14:23;101784.03;;;23.88;37.11
75936;BME280;64614;32.062;34.834;2022-11-20T04:16:50;101782.63;;;23.90;37.66
75936;BME280;64614;32.062;34.834;2022-11-20T04:19:16;101780.97;;;23.89;38.66
75936;BME280;64614;32.062;34.834;2022-11-20T04:21:43;101777.91;;;23.96;39.32
75936;BME280;64614;32.062;34.834;2022-11-20T04:24:09;101773.50;;;24.00;39.63
75936;BME280;64614;32.062;34.834;2022-11-20T04:26:39;101781.59;;;24.11;39.89
75936;BME280;64614;32.062;34.834;2022-11-20T04:29:05;101777.03;;;24.20;39.90
75936;BME280;64614;32.062;34.834;2022-11-20T04:31:38;101778.69;;;24.21;40.24
75936;BME280;64614;32.062;34.834;2022-11-20T04:34:06;101777.13;;;24.15;40.63
75936;BME280;64614;32.062;34.834;2022-11-20T04:39:01;101782.16;;;24.07;37.97
75936;BME280;64614;32.062;34.834;2022-11-20T04:41:29;101777.13;;;24.15;37.15
75936;BME280;64614;32.062;34.834;2022-11-20T04:43:58;101772.69;;;24.19;37.08
75936;BME280;64614;32.062;34.834;2022-11-20T04:46:28;101778.41;;;24.22;36.67
75936;BME280;64614;32.062;34.834;2022-11-20T04:48:55;101776.78;;;24.21;35.82
75936;BME280;64614;32.062;34.834;2022-11-20T04:51:21;101783.59;;;24.24;35.67
75936;BME280;64614;32.062;34.834;2022-11-20T04:53:46;101789.59;;;24.26;35.81
75936;BME280;64614;32.062;34.834;2022-11-20T04:56:12;101788.72;;;24.31;35.56
75936;BME280;64614;32.062;34.834;2022-11-20T04:58:39;101781.81;;;24.33;35.75
75936;BME280;64614;32.062;34.834;2022-11-20T05:01:07;101783.69;;;24.38;35.86
75936;BME280;64614;32.062;34.834;2022-11-20T05:03:33;101788.28;;;24.43;36.15
75936;BME280;64614;32.062;34.834;2022-11-20T05:06:05;101786.28;;;24.48;37.46
75936;BME280;64614;32.062;34.834;2022-11-20T05:08:35;101784.94;;;24.65;37.77
75936;BME280;64614;32.062;34.834;2022-11-20T05:11:15;101780.72;;;24.73;38.02
75936;BME280;64614;32.062;34.834;2022-11-20T05:13:41;101780.75;;;24.86;37.97
75936;BME280;64614;32.062;34.834;2022-11-20T05:16:13;101786.38;;;24.95;38.13
75936;BME280;64614;32.062;34.834;2022-11-20T05:18:39;101795.00;;;25.08;38.02
75936;BME280;64614;32.062;34.834;2022-11-20T05:21:09;101792.03;;;25.18;38.26
75936;BME280;64614;32.062;34.834;2022-11-20T05:23:36;101788.59;;;25.26;38.17
75936;BME280;64614;32.062;34.834;2022-11-20T05:26:02;101786.78;;;25.35;38.24
75936;BME280;64614;32.062;34.834;2022-11-20T05:28:30;101799.84;;;25.44;38.09
75936;BME280;64614;32.062;34.834;2022-11-20T05:31:04;101791.19;;;25.50;38.08
75936;BME280;64614;32.062;34.834;2022-11-20T05:33:30;101797.13;;;25.58;37.74
75936;BME280;64614;32.062;34.834;2022-11-20T05:39:10;101793.25;;;25.73;38.21
75936;BME280;64614;32.062;34.834;2022-11-20T05:41:39;101817.81;;;25.83;37.82
75936;BME280;64614;32.062;34.834;2022-11-20T05:44:04;101815.97;;;25.92;37.86
75936;BME280;64614;32.062;34.834;2022-11-20T05:49:11;101817.81;;;26.11;37.54
75936;BME280;64614;32.062;34.834;2022-11-20T06:02:36;101816.00;;;26.43;33.25
75936;BME280;64614;32.062;34.834;2022-11-20T06:05:01;101811.94;;;26.40;34.10
75936;BME280;64614;32.062;34.834;2022-11-20T06:07:27;101812.75;;;26.41;34.17
75936;BME280;64614;32.062;34.834;2022-11-20T06:09:53;101809.81;;;26.37;34.43
75936;BME280;64614;32.062;34.834;2022-11-20T06:12:19;101799.63;;;26.38;33.87
75936;BME280;64614;32.062;34.834;2022-11-20T06:14:44;101806.06;;;26.33;34.33
75936;BME280;64614;32.062;34.834;2022-11-20T06:17:10;101798.41;;;26.30;34.02
75936;BME280;64614;32.062;34.834;2022-11-20T06:19:38;101797.09;;;26.27;34.83
75936;BME280;64614;32.062;34.834;2022-11-20T06:22:04;101804.75;;;26.31;33.91
75936;BME280;64614;32.062;34.834;2022-11-20T06:24:29;101800.13;;;26.40;33.71
75936;BME280;64614;32.062;34.834;2022-11-20T06:26:55;101798.31;;;26.35;34.47
75936;BME280;64614;32.062;34.834;2022-11-20T06:29:22;101798.09;;;26.32;34.96
75936;BME280;64614;32.062;34.834;2022-11-20T06:31:47;101797.09;;;26.27;35.39
75936;BME280;64614;32.062;34.834;2022-11-20T06:34:13;101793.31;;;26.23;35.54
75936;BME280;64614;32.062;34.834;2022-11-20T06:36:40;101787.63;;;26.20;35.87
75936;BME280;64614;32.062;34.834;2022-11-20T06:39:06;101785.31;;;26.13;35.95
75936;BME280;64614;32.062;34.834;2022-11-20T06:41:31;101775.59;;;26.16;36.02
75936;BME280;64614;32.062;34.834;2022-11-20T06:43:57;101778.66;;;26.14;36.14
75936;BME280;64614;32.062;34.834;2022-11-20T06:46:23;101769.91;;;26.12;36.09
75936;BME280;64614;32.062;34.834;2022-11-20T06:48:49;101772.25;;;26.05;36.41
75936;BME280;64614;32.062;34.834;2022-11-20T06:51:15;101776.59;;;26.06;36.52
75936;BME280;64614;32.062;34.834;2022-11-20T06:53:41;101777.75;;;26.05;36.67
75936;BME280;64614;32.062;34.834;2022-11-20T06:56:10;101778.88;;;26.04;36.72
75936;BME280;64614;32.062;34.834;2022-11-20T06:58:36;101770.91;;;26.02;37.05
75936;BME280;64614;32.062;34.834;2022-11-20T07:01:04;101766.03;;;25.85;36.90
75936;BME280;64614;32.062;34.834;2022-11-20T07:03:30;101762.25;;;25.81;37.36
75936;BME280;64614;32.062;34.834;2022-11-20T07:05:57;101768.88;;;25.80;37.50
75936;BME280;64614;32.062;34.834;2022-11-20T07:08:23;101771.34;;;25.81;37.39
75936;BME280;64614;32.062;34.834;2022-11-20T07:10:50;101766.97;;;25.80;37.47
75936;BME280;64614;32.062;34.834;2022-11-20T07:13:16;101767.47;;;25.83;37.21
75936;BME280;64614;32.062;34.834;2022-11-20T07:15:41;101750.53;;;25.75;37.14
75936;BME280;64614;32.062;34.834;2022-11-20T07:18:08;101737.31;;;25.77;37.31
75936;BME280;64614;32.062;34.834;2022-11-20T07:20:34;101725.38;;;25.82;36.34
75936;BME280;64614;32.062;34.834;2022-11-20T07:23:00;101767.25;;;25.79;36.61
75936;BME280;64614;32.062;34.834;2022-11-20T07:25:27;101762.78;;;25.83;36.10
75936;BME280;64614;32.062;34.834;2022-11-20T07:27:56;101725.75;;;25.89;34.28
75936;BME280;64614;32.062;34.834;2022-11-20T07:30:22;101748.50;;;25.95;33.73
75936;BME280;64614;32.062;34.834;2022-11-20T07:32:51;101748.50;;;25.95;34.45
75936;BME280;64614;32.062;34.834;2022-11-20T07:35:16;101764.69;;;25.96;33.83
75936;BME280;64614;32.062;34.834;2022-11-20T07:37:43;101736.69;;;25.94;33.81
75936;BME280;64614;32.062;34.834;2022-11-20T07:40:12;101734.81;;;26.04;33.36
75936;BME280;64614;32.062;34.834;2022-11-20T07:42:37;101727.03;;;26.06;33.39
75936;BME280;64614;32.062;34.834;2022-11-20T07:45:05;101720.41;;;26.07;33.30
75936;BME280;64614;32.062;34.834;2022-11-20T07:49:59;101707.50;;;26.07;33.42
75936;BME280;64614;32.062;34.834;2022-11-20T07:52:26;101699.31;;;26.16;33.05
75936;BME280;64614;32.062;34.834;2022-11-20T07:54:54;101703.19;;;26.15;32.75
75936;BME280;64614;32.062;34.834;2022-11-20T07:57:20;101706.66;;;26.21;32.76
75936;BME280;64614;32.062;34.834;2022-11-20T07:59:45;101736.13;;;26.20;32.62
75936;BME280;64614;32.062;34.834;2022-11-20T08:02:11;101726.56;;;26.18;32.35
75936;BME280;64614;32.062;34.834;2022-11-20T08:04:37;101714.41;;;26.19;31.81
75936;BME280;64614;32.062;34.834;2022-11-20T08:07:03;101715.22;;;26.19;32.52
75936;BME280;64614;32.062;34.834;2022-11-20T08:09:29;101710.84;;;26.18;32.49
75936;BME280;64614;32.062;34.834;2022-11-20T08:11:54;101700.34;;;26.20;32.48
75936;BME280;64614;32.062;34.834;2022-11-20T08:17:09;101702.59;;;26.18;32.23
75936;BME280;64614;32.062;34.834;2022-11-20T08:19:35;101700.75;;;26.14;31.28
75936;BME280;64614;32.062;34.834;2022-11-20T08:22:01;101703.69;;;26.17;30.63
75936;BME280;64614;32.062;34.834;2022-11-20T08:24:29;101681.63;;;26.08;29.90
75936;BME280;64614;32.062;34.834;2022-11-20T08:26:57;101694.22;;;26.09;29.71
75936;BME280;64614;32.062;34.834;2022-11-20T08:29:25;101687.31;;;26.12;30.07
75936;BME280;64614;32.062;34.834;2022-11-20T08:31:51;101670.88;;;26.07;30.21
75936;BME280;64614;32.062;34.834;2022-11-20T08:34:16;101673.84;;;26.10;29.94
75936;BME280;64614;32.062;34.834;2022-11-20T08:36:42;101671.59;;;26.12;30.15
75936;BME280;64614;32.062;34.834;2022-11-20T08:39:11;101673.63;;;26.07;29.51
75936;BME280;64614;32.062;34.834;2022-11-20T08:41:37;101660.19;;;26.05;29.62
75936;BME280;64614;32.062;34.834;2022-11-20T08:44:04;101658.75;;;26.08;29.55
75936;BME280;64614;32.062;34.834;2022-11-20T08:46:37;101653.03;;;26.04;30.01
75936;BME280;64614;32.062;34.834;2022-11-20T08:49:10;101664.38;;;26.03;28.03
75936;BME280;64614;32.062;34.834;2022-11-20T08:54:58;101642.47;;;25.97;29.44
75936;BME280;64614;32.062;34.834;2022-11-20T08:59:56;101630.97;;;25.95;29.92
75936;BME280;64614;32.062;34.834;2022-11-20T09:02:21;101633.72;;;25.95;29.49
75936;BME280;64614;32.062;34.834;2022-11-20T09:04:47;101628.00;;;25.92;29.38
75936;BME280;64614;32.062;34.834;2022-11-20T09:07:13;101621.09;;;25.94;29.86
75936;BME280;64614;32.062;34.834;2022-11-20T09:09:38;101608.25;;;25.90;29.85
75936;BME280;64614;32.062;34.834;2022-11-20T09:12:04;101597.44;;;25.93;30.16
75936;BME280;64614;32.062;34.834;2022-11-20T09:14:31;101613.31;;;25.96;30.44
75936;BME280;64614;32.062;34.834;2022-11-20T09:16:57;101599.53;;;25.96;30.23
75936;BME280;64614;32.062;34.834;2022-11-20T09:19:25;101573.47;;;25.94;30.05
75936;BME280;64614;32.062;34.834;2022-11-20T09:21:51;101569.28;;;25.96;30.62
75936;BME280;64614;32.062;34.834;2022-11-20T09:24:17;101583.03;;;25.96;30.53
75936;BME280;64614;32.062;34.834;2022-11-20T09:26:44;101572.84;;;25.97;29.96
75936;BME280;64614;32.062;34.834;2022-11-20T09:29:09;101561.53;;;25.99;30.54
75936;BME280;64614;32.062;34.834;2022-11-20T09:31:36;101568.66;;;26.00;30.75
75936;BME280;64614;32.062;34.834;2022-11-20T09:34:01;101567.53;;;26.01;30.38
75936;BME280;64614;32.062;34.834;2022-11-20T09:36:27;101548.88;;;25.97;30.94
75936;BME280;64614;32.062;34.834;2022-11-20T09:38:53;101532.50;;;25.92;30.74
75936;BME280;64614;32.062;34.834;2022-11-20T09:47:11;101540.34;;;25.99;30.89
75936;BME280;64614;32.062;34.834;2022-11-20T09:50:33;101527.19;;;25.96;30.85
75936;BME280;64614;32.062;34.834;2022-11-20T09:55:55;101527.50;;;25.94;30.91
75936;BME280;64614;32.062;34.834;2022-11-20T09:58:29;101528.94;;;25.92;31.44
75936;BME280;64614;32.062;34.834;2022-11-20T10:06:34;101525.88;;;25.93;31.41
75936;BME280;64614;32.062;34.834;2022-11-20T10:09:37;101494.50;;;25.94;31.16
75936;BME280;64614;32.062;34.834;2022-11-20T10:15:03;101511.28;;;25.93;31.27
75936;BME280;64614;32.062;34.834;2022-11-20T10:18:00;101471.63;;;25.94;31.65
75936;BME280;64614;32.062;34.834;2022-11-20T10:28:24;101475.03;;;25.91;31.21
75936;BME280;64614;32.062;34.834;2022-11-20T10:31:00;101488.66;;;25.96;30.81
75936;BME280;64614;32.062;34.834;2022-11-20T10:33:31;101479.72;;;25.90;31.55
75936;BME280;64614;32.062;34.834;2022-11-20T10:36:23;101489.94;;;25.90;31.28
75936;BME280;64614;32.062;34.834;2022-11-20T10:38:55;101470.97;;;25.88;31.17
75936;BME280;64614;32.062;34.834;2022-11-20T10:41:27;101456.06;;;25.89;30.94
75936;BME280;64614;32.062;34.834;2022-11-20T10:47:18;101456.56;;;25.91;31.25
75936;BME280;64614;32.062;34.834;2022-11-20T10:49:52;101459.34;;;25.91;31.16
75936;BME280;64614;32.062;34.834;2022-11-20T10:59:35;101442.97;;;25.86;31.68
75936;BME280;64614;32.062;34.834;2022-11-20T11:13:39;101415.13;;;25.88;31.68
75936;BME280;64614;32.062;34.834;2022-11-20T11:19:29;101396.97;;;25.87;31.81
75936;BME280;64614;32.062;34.834;2022-11-20T11:22:11;101413.34;;;25.92;32.12
75936;BME280;64614;32.062;34.834;2022-11-20T11:24:51;101411.56;;;25.87;32.08
75936;BME280;64614;32.062;34.834;2022-11-20T11:27:18;101411.06;;;25.85;31.60
75936;BME280;64614;32.062;34.834;2022-11-20T11:29:46;101421.31;;;25.93;31.81
75936;BME280;64614;32.062;34.834;2022-11-20T11:40:44;101412.41;;;25.96;31.98
75936;BME280;64614;32.062;34.834;2022-11-20T12:08:59;101395.25;;;25.91;32.52
75936;BME280;64614;32.062;34.834;2022-11-20T12:14:22;101399.91;;;25.90;32.50
75936;BME280;64614;32.062;34.834;2022-11-20T12:25:28;101375.50;;;25.97;32.03
75936;BME280;64614;32.062;34.834;2022-11-20T12:30:32;101371.09;;;25.88;32.67
75936;BME280;64614;32.062;34.834;2022-11-20T12:41:51;101357.84;;;25.90;32.17
75936;BME280;64614;32.062;34.834;2022-11-20T13:12:36;101345.06;;;25.94;32.52
75936;BME280;64614;32.062;34.834;2022-11-20T13:17:19;101329.38;;;25.94;32.18
75936;BME280;64614;32.062;34.834;2022-11-20T13:23:08;101322.91;;;25.99;32.13
75936;BME280;64614;32.062;34.834;2022-11-20T13:29:09;101323.53;;;25.96;31.80
75936;BME280;64614;32.062;34.834;2022-11-20T13:38:12;101325.94;;;25.89;31.95
75936;BME280;64614;32.062;34.834;2022-11-20T13:40:51;101319.78;;;25.83;32.07
